Time;durP1;ratioP1;P1;durP2;ratioP2;P2;SDS_P1;SDS_P2;PMS_P1;PMS_P2;Temp;Humidity;BMP_temperature;BMP_pressure;BME280_temperature;BME280_humidity;BME280_pressure;Samples;Min_cycle;Max_cycle;Signal;HPM_P1;HPM_P2
2023/03/01 00:00:38;;;;;;;15.23;11.10;;;-0.40;99.90;;;;;;5046025;28;20413;-71
2023/03/01 00:03:04;;;;;;;12.87;9.60;;;-0.40;99.90;;;;;;5044455;28;20457;-69
2023/03/01 00:05:30;;;;;;;10.57;9.03;;;-0.50;99.90;;;;;;5041247;28;20164;-69
2023/03/01 00:07:55;;;;;;;14.30;9.47;;;-0.50;99.90;;;;;;5043819;28;20225;-70
2023/03/01 00:10:21;;;;;;;14.27;10.77;;;-0.40;99.90;;;;;;5042733;28;20651;-71
2023/03/01 00:12:46;;;;;;;14.83;8.93;;;-0.40;99.90;;;;;;5046699;28;20171;-70
2023/03/01 00:15:12;;;;;;;17.20;13.00;;;-0.50;99.90;;;;;;5043610;28;20552;-71
2023/03/01 00:17:38;;;;;;;12.77;9.03;;;-0.60;99.90;;;;;;5047312;28;20673;-71
2023/03/01 00:20:08;;;;;;;17.10;11.03;;;-0.70;99.90;;;;;;5044438;28;20167;-71
2023/03/01 00:22:33;;;;;;;19.47;12.27;;;-0.70;99.90;;;;;;5041671;28;20785;-71
2023/03/01 00:24:59;;;;;;;15.60;10.50;;;-0.70;99.90;;;;;;5047948;28;20441;-70
2023/03/01 00:27:24;;;;;;;14.50;11.03;;;-0.80;99.90;;;;;;5035047;28;20558;-71
2023/03/01 00:29:50;;;;;;;16.63;10.43;;;-0.80;99.90;;;;;;5047877;28;20168;-71
2023/03/01 00:32:15;;;;;;;15.60;10.63;;;-0.80;99.90;;;;;;5039568;28;20680;-69
2023/03/01 00:34:41;;;;;;;15.00;11.07;;;-0.80;99.90;;;;;;5047371;28;20251;-70
2023/03/01 00:37:07;;;;;;;19.80;10.97;;;-0.80;99.90;;;;;;5043496;28;20187;-70
2023/03/01 00:39:33;;;;;;;16.57;10.57;;;-0.80;99.90;;;;;;5041475;28;20646;-70
2023/03/01 00:41:58;;;;;;;19.53;10.80;;;-0.80;99.90;;;;;;5033133;28;20233;-70
2023/03/01 00:44:24;;;;;;;18.17;10.13;;;-0.80;99.90;;;;;;5019841;28;20457;-69
2023/03/01 00:46:50;;;;;;;25.37;13.50;;;-0.80;99.90;;;;;;5033390;28;20645;-70
2023/03/01 00:49:15;;;;;;;22.53;11.63;;;-0.60;99.90;;;;;;5046532;28;20175;-70
2023/03/01 00:51:41;;;;;;;22.27;12.03;;;-0.50;99.90;;;;;;5033105;28;20171;-71
2023/03/01 00:54:09;;;;;;;17.73;12.77;;;-0.30;99.90;;;;;;5034408;28;20171;-71
2023/03/01 00:56:35;;;;;;;18.90;11.80;;;-0.30;99.90;;;;;;5042416;28;20171;-69
2023/03/01 00:59:01;;;;;;;14.50;11.70;;;-0.30;99.90;;;;;;5047422;28;20429;-71
2023/03/01 01:01:29;;;;;;;17.90;10.60;;;-0.30;99.90;;;;;;5030858;28;20175;-71
2023/03/01 01:03:58;;;;;;;16.47;10.60;;;-0.40;99.90;;;;;;5036243;28;20450;-70
2023/03/01 01:06:26;;;;;;;17.20;12.90;;;-0.50;99.90;;;;;;5045577;28;20414;-70
2023/03/01 01:08:53;;;;;;;19.97;12.03;;;-0.60;99.90;;;;;;5054692;22;21100;-59
2023/03/01 01:11:19;;;;;;;21.23;11.67;;;-0.60;99.90;;;;;;4999965;28;20406;-61
2023/03/01 01:13:46;;;;;;;23.70;11.50;;;-0.70;99.90;;;;;;4995277;28;20405;-60
2023/03/01 01:16:12;;;;;;;16.97;11.90;;;-0.70;99.90;;;;;;5003537;28;20415;-59
2023/03/01 01:18:38;;;;;;;19.87;12.10;;;-0.60;99.90;;;;;;4989652;28;20436;-63
2023/03/01 01:21:10;;;;;;;15.93;13.03;;;-0.60;99.90;;;;;;4990986;28;20419;-64
2023/03/01 01:23:37;;;;;;;17.50;10.10;;;-0.80;99.90;;;;;;4990975;28;20824;-60
2023/03/01 01:26:11;;;;;;;21.30;12.77;;;-0.80;99.90;;;;;;4990724;28;20408;-63
2023/03/01 01:28:37;;;;;;;23.70;13.30;;;-0.90;99.90;;;;;;4990474;28;20500;-63
2023/03/01 01:31:04;;;;;;;12.33;10.63;;;-0.80;99.90;;;;;;4990737;28;20444;-63
2023/03/01 01:33:30;;;;;;;17.30;11.27;;;-0.90;99.90;;;;;;4986844;28;20196;-62
2023/03/01 01:35:55;;;;;;;17.17;12.97;;;-0.90;99.90;;;;;;4989852;28;20910;-62
2023/03/01 01:38:21;;;;;;;19.50;13.30;;;-0.90;99.90;;;;;;4990196;28;20485;-62
2023/03/01 01:40:48;;;;;;;18.10;12.60;;;-0.90;99.90;;;;;;4990564;28;20172;-63
2023/03/01 01:43:26;;;;;;;23.07;13.10;;;-1.00;99.90;;;;;;4990437;28;20200;-63
2023/03/01 01:46:00;;;;;;;16.93;12.53;;;-1.00;99.90;;;;;;4990184;28;20420;-62
2023/03/01 01:48:40;;;;;;;24.90;12.73;;;-1.00;99.90;;;;;;4983518;28;20901;-62
2023/03/01 01:51:09;;;;;;;12.73;10.07;;;-1.00;99.90;;;;;;4989095;28;20440;-62
2023/03/01 01:53:36;;;;;;;17.60;12.10;;;-1.10;99.90;;;;;;4990638;28;21095;-60
2023/03/01 01:56:03;;;;;;;19.63;13.53;;;-1.10;99.90;;;;;;4990574;28;20408;-61
2023/03/01 01:58:30;;;;;;;20.27;11.27;;;-1.10;99.90;;;;;;4990820;28;20412;-59
2023/03/01 02:00:56;;;;;;;17.43;11.97;;;-1.30;99.90;;;;;;4990518;28;20792;-62
2023/03/01 02:03:33;;;;;;;18.30;11.23;;;-1.20;99.90;;;;;;4996759;28;20509;-63
2023/03/01 02:06:06;;;;;;;22.00;12.30;;;-1.20;99.90;;;;;;4990343;28;20414;-62
2023/03/01 02:08:36;;;;;;;14.37;12.30;;;-1.20;99.90;;;;;;4997465;28;20427;-62
2023/03/01 02:11:04;;;;;;;16.20;11.07;;;-1.10;99.90;;;;;;4995689;28;20918;-62
2023/03/01 02:13:31;;;;;;;17.77;11.00;;;-1.10;99.90;;;;;;4995073;28;20408;-62
2023/03/01 02:15:57;;;;;;;15.50;9.97;;;-1.20;99.90;;;;;;4990345;28;20412;-61
2023/03/01 02:18:24;;;;;;;14.40;10.23;;;-1.30;99.90;;;;;;4990420;28;21003;-62
2023/03/01 02:21:01;;;;;;;17.23;11.70;;;-1.30;99.90;;;;;;4997136;28;20290;-62
2023/03/01 02:23:28;;;;;;;20.37;10.63;;;-1.40;99.90;;;;;;4986007;28;20467;-60
2023/03/01 02:26:06;;;;;;;18.00;10.77;;;-1.40;99.90;;;;;;4990219;28;20423;-63
2023/03/01 02:28:37;;;;;;;16.57;10.83;;;-1.40;99.90;;;;;;4989569;28;20412;-61
2023/03/01 02:33:53;;;;;;;19.00;12.10;;;-1.40;99.90;;;;;;4990140;28;20415;-62
2023/03/01 02:36:30;;;;;;;12.80;10.13;;;-1.30;99.90;;;;;;4992195;28;20789;-62
2023/03/01 02:38:59;;;;;;;20.83;10.93;;;-1.30;99.90;;;;;;4989902;28;20772;-62
2023/03/01 02:41:28;;;;;;;12.73;9.33;;;-1.50;99.90;;;;;;4995471;28;20435;-61
2023/03/01 02:43:54;;;;;;;24.40;13.20;;;-1.40;99.90;;;;;;4989817;28;20965;-62
2023/03/01 02:46:22;;;;;;;19.67;11.37;;;-1.30;99.90;;;;;;4990567;28;20408;-61
2023/03/01 02:48:51;;;;;;;18.07;11.57;;;-1.30;99.90;;;;;;4994821;28;20189;-62
2023/03/01 02:51:25;;;;;;;17.03;11.20;;;-1.30;99.90;;;;;;4993918;28;20416;-62
2023/03/01 02:54:09;;;;;;;15.83;9.27;;;-1.40;99.90;;;;;;4996324;28;20411;-63
2023/03/01 02:56:35;;;;;;;15.50;9.77;;;-1.40;99.90;;;;;;4990760;28;20447;-62
2023/03/01 02:59:02;;;;;;;13.97;10.07;;;-1.50;99.90;;;;;;4990680;28;20486;-62
2023/03/01 03:01:37;;;;;;;12.73;9.70;;;-1.50;99.90;;;;;;4997594;28;20407;-61
2023/03/01 03:04:07;;;;;;;10.37;9.07;;;-1.60;99.90;;;;;;4993596;28;20459;-62
2023/03/01 03:06:33;;;;;;;19.00;9.90;;;-1.60;99.90;;;;;;4994061;28;20403;-62
2023/03/01 03:08:59;;;;;;;13.33;9.27;;;-1.60;99.90;;;;;;5004063;28;20455;-62
2023/03/01 03:11:25;;;;;;;21.27;10.10;;;-1.60;99.90;;;;;;4993471;28;20845;-62
2023/03/01 03:13:51;;;;;;;14.60;9.97;;;-1.60;99.90;;;;;;4996975;28;20428;-62
2023/03/01 03:16:17;;;;;;;13.77;9.83;;;-1.60;99.90;;;;;;4993462;28;20785;-62
2023/03/01 03:18:43;;;;;;;13.00;9.37;;;-1.60;99.90;;;;;;4993623;28;20736;-62
2023/03/01 03:21:11;;;;;;;12.23;8.33;;;-1.60;99.90;;;;;;4998158;28;20771;-62
2023/03/01 03:23:36;;;;;;;11.90;8.30;;;-1.50;99.90;;;;;;4993599;28;20516;-62
2023/03/01 03:26:06;;;;;;;10.90;8.27;;;-1.40;99.90;;;;;;4993470;28;20415;-62
2023/03/01 03:28:33;;;;;;;11.80;8.13;;;-1.40;99.90;;;;;;4993514;28;20224;-62
2023/03/01 03:31:03;;;;;;;9.00;6.57;;;-1.50;99.90;;;;;;4992171;28;20531;-62
2023/03/01 03:33:30;;;;;;;10.83;7.50;;;-1.60;99.90;;;;;;4993718;28;20804;-61
2023/03/01 03:35:56;;;;;;;9.20;7.43;;;-1.60;99.90;;;;;;4993199;28;20481;-60
2023/03/01 03:38:22;;;;;;;8.73;7.90;;;-1.70;99.90;;;;;;4998211;28;20966;-61
2023/03/01 03:40:49;;;;;;;13.47;9.70;;;-1.60;99.90;;;;;;5001080;28;20416;-63
2023/03/01 03:43:22;;;;;;;13.03;8.47;;;-1.70;99.90;;;;;;4998641;28;20485;-63
2023/03/01 03:45:50;;;;;;;12.07;8.23;;;-1.80;99.90;;;;;;4993381;28;20420;-63
2023/03/01 03:48:16;;;;;;;17.43;8.50;;;-1.80;99.90;;;;;;4991607;28;20502;-63
2023/03/01 03:50:49;;;;;;;10.77;8.40;;;-1.80;99.90;;;;;;4993072;28;20790;-63
2023/03/01 03:53:15;;;;;;;9.73;8.07;;;-1.80;99.90;;;;;;4995341;28;20478;-64
2023/03/01 03:55:40;;;;;;;14.40;9.27;;;-1.80;99.90;;;;;;4997825;28;20421;-62
2023/03/01 03:58:09;;;;;;;14.83;8.73;;;-1.80;99.90;;;;;;4991975;28;20424;-62
2023/03/01 04:00:40;;;;;;;17.67;8.90;;;-1.80;99.90;;;;;;4993035;28;20197;-62
2023/03/01 04:03:06;;;;;;;12.30;7.60;;;-1.80;99.90;;;;;;4993766;28;20456;-62
2023/03/01 04:05:32;;;;;;;10.60;8.33;;;-1.80;99.90;;;;;;4992938;28;20420;-62
2023/03/01 04:08:01;;;;;;;13.93;8.87;;;-1.80;99.90;;;;;;5000026;28;20803;-61
2023/03/01 04:10:29;;;;;;;11.63;8.30;;;-1.90;99.90;;;;;;4986746;28;20483;-63
2023/03/01 04:12:55;;;;;;;11.53;8.33;;;-1.90;99.90;;;;;;4995236;28;20906;-62
2023/03/01 04:15:23;;;;;;;13.10;9.73;;;-1.90;99.90;;;;;;4991708;28;20475;-63
2023/03/01 04:17:51;;;;;;;12.60;8.80;;;-1.90;99.90;;;;;;4992508;28;20499;-62
2023/03/01 04:20:24;;;;;;;12.40;8.23;;;-1.90;99.90;;;;;;4992653;28;20486;-62
2023/03/01 04:22:52;;;;;;;11.83;7.37;;;-1.90;99.90;;;;;;4992562;28;20460;-62
2023/03/01 04:25:18;;;;;;;10.80;9.17;;;-1.90;99.90;;;;;;4999361;28;20929;-64
2023/03/01 04:27:44;;;;;;;17.10;9.63;;;-2.00;99.90;;;;;;4993463;28;20412;-64
2023/03/01 04:30:10;;;;;;;13.03;7.80;;;-2.00;99.90;;;;;;4991059;28;20463;-62
2023/03/01 04:32:35;;;;;;;11.17;8.50;;;-2.00;99.90;;;;;;4992530;28;20176;-63
2023/03/01 04:35:01;;;;;;;9.47;7.27;;;-1.90;99.90;;;;;;4996937;28;20930;-63
2023/03/01 04:37:27;;;;;;;10.20;8.67;;;-2.00;99.90;;;;;;4992626;28;20181;-63
2023/03/01 04:39:53;;;;;;;15.63;8.47;;;-2.00;99.90;;;;;;4993727;28;20204;-63
2023/03/01 04:42:19;;;;;;;12.23;7.90;;;-2.00;99.90;;;;;;4998606;28;20796;-61
2023/03/01 04:44:45;;;;;;;10.73;7.13;;;-2.00;99.90;;;;;;4993761;28;20236;-60
2023/03/01 04:47:12;;;;;;;9.93;7.60;;;-2.00;99.90;;;;;;4992252;28;20478;-61
2023/03/01 04:49:38;;;;;;;10.80;8.77;;;-2.00;99.90;;;;;;4992348;28;20495;-61
2023/03/01 04:52:05;;;;;;;12.23;9.20;;;-2.00;99.90;;;;;;4992397;28;20436;-59
2023/03/01 04:54:32;;;;;;;13.73;8.90;;;-2.00;99.90;;;;;;4992310;28;20416;-62
2023/03/01 04:56:58;;;;;;;9.63;8.57;;;-2.00;99.90;;;;;;4993254;28;20416;-60
2023/03/01 04:59:24;;;;;;;10.57;7.43;;;-2.00;99.90;;;;;;4983893;28;20953;-61
2023/03/01 05:01:55;;;;;;;14.57;9.70;;;-2.00;99.90;;;;;;4993033;28;20917;-61
2023/03/01 05:04:21;;;;;;;10.57;9.33;;;-2.00;99.90;;;;;;4992155;28;20499;-61
2023/03/01 05:06:47;;;;;;;21.10;9.67;;;-2.00;99.90;;;;;;4992003;28;20408;-64
2023/03/01 05:09:13;;;;;;;9.63;8.63;;;-2.10;99.90;;;;;;5006658;28;20450;-62
2023/03/01 05:11:38;;;;;;;10.33;9.33;;;-2.00;99.90;;;;;;5003292;28;20192;-62
2023/03/01 05:14:06;;;;;;;11.37;8.60;;;-1.90;99.90;;;;;;4991793;28;20235;-62
2023/03/01 05:16:32;;;;;;;16.93;10.67;;;-2.00;99.90;;;;;;4996946;28;20188;-62
2023/03/01 05:18:58;;;;;;;14.33;10.07;;;-1.90;99.90;;;;;;4997958;28;20468;-63
2023/03/01 05:21:25;;;;;;;15.20;10.50;;;-1.80;99.90;;;;;;4991990;28;20432;-62
2023/03/01 05:23:50;;;;;;;13.97;9.93;;;-1.70;99.90;;;;;;4991844;28;20462;-62
2023/03/01 05:26:18;;;;;;;10.73;9.80;;;-1.90;99.90;;;;;;4991520;28;20928;-62
2023/03/01 05:28:44;;;;;;;16.47;10.57;;;-2.00;99.90;;;;;;4992833;28;20192;-62
2023/03/01 05:31:10;;;;;;;15.30;10.43;;;-2.10;99.90;;;;;;4994421;28;20429;-60
2023/03/01 05:33:37;;;;;;;16.23;9.67;;;-2.10;99.90;;;;;;4996857;28;20408;-62
2023/03/01 05:36:03;;;;;;;18.10;12.43;;;-2.10;99.90;;;;;;4993508;28;20651;-60
2023/03/01 05:38:29;;;;;;;17.20;10.97;;;-2.10;99.90;;;;;;4991490;28;20447;-63
2023/03/01 05:40:55;;;;;;;12.90;8.93;;;-2.10;99.90;;;;;;4990285;28;20895;-60
2023/03/01 05:43:20;;;;;;;16.57;10.20;;;-2.10;99.90;;;;;;4995201;28;20275;-62
2023/03/01 05:45:46;;;;;;;14.20;10.73;;;-2.10;99.90;;;;;;4991331;28;20608;-62
2023/03/01 05:48:13;;;;;;;16.70;10.30;;;-2.20;99.90;;;;;;4994032;28;20184;-63
2023/03/01 05:50:41;;;;;;;15.10;10.97;;;-2.20;99.90;;;;;;4996458;28;20192;-61
2023/03/01 05:53:11;;;;;;;14.43;10.10;;;-2.20;99.90;;;;;;4992991;28;20443;-61
2023/03/01 05:55:38;;;;;;;16.17;10.60;;;-2.20;99.90;;;;;;4990806;28;20566;-62
2023/03/01 05:58:06;;;;;;;9.67;8.30;;;-2.20;99.90;;;;;;4990045;28;20798;-61
2023/03/01 06:00:33;;;;;;;14.03;9.40;;;-2.20;99.90;;;;;;4984093;28;20530;-62
2023/03/01 06:03:00;;;;;;;12.93;9.73;;;-2.10;99.90;;;;;;4996602;28;20466;-63
2023/03/01 06:05:27;;;;;;;10.63;9.17;;;-2.10;99.90;;;;;;4991050;28;20408;-62
2023/03/01 06:07:53;;;;;;;16.10;9.67;;;-2.10;99.90;;;;;;4991025;28;20416;-63
2023/03/01 06:10:21;;;;;;;15.73;11.17;;;-2.10;99.90;;;;;;4990650;28;20451;-62
2023/03/01 06:12:47;;;;;;;16.13;9.60;;;-2.10;99.90;;;;;;4990788;28;20498;-63
2023/03/01 06:15:15;;;;;;;8.40;7.53;;;-2.10;99.90;;;;;;4989905;28;20498;-63
2023/03/01 06:17:42;;;;;;;16.27;11.37;;;-2.00;99.90;;;;;;4988170;28;20531;-63
2023/03/01 06:20:14;;;;;;;14.67;11.17;;;-1.90;99.90;;;;;;4990247;28;20436;-62
2023/03/01 06:22:41;;;;;;;14.20;9.60;;;-1.90;99.90;;;;;;4990279;28;20440;-62
2023/03/01 06:25:09;;;;;;;14.77;10.87;;;-1.80;99.90;;;;;;4990505;28;20799;-62
2023/03/01 06:27:35;;;;;;;13.77;9.57;;;-1.80;99.90;;;;;;4997570;28;20418;-62
2023/03/01 06:30:01;;;;;;;13.70;9.80;;;-1.70;99.90;;;;;;4993363;28;20502;-62
2023/03/01 06:32:27;;;;;;;14.00;11.30;;;-1.60;99.90;;;;;;4990659;28;20406;-62
2023/03/01 06:34:52;;;;;;;13.53;10.33;;;-1.50;99.90;;;;;;4993078;28;20567;-61
2023/03/01 06:37:18;;;;;;;14.17;9.50;;;-1.50;99.90;;;;;;4995977;28;20660;-62
2023/03/01 06:39:43;;;;;;;15.67;11.50;;;-1.40;99.90;;;;;;4991063;28;20251;-62
2023/03/01 06:42:12;;;;;;;17.80;11.53;;;-1.30;99.90;;;;;;4991077;28;20223;-62
2023/03/01 06:44:38;;;;;;;17.63;10.33;;;-1.30;99.90;;;;;;4990693;28;20203;-62
2023/03/01 06:47:04;;;;;;;13.97;11.67;;;-1.20;99.90;;;;;;4991455;28;20408;-63
2023/03/01 06:49:30;;;;;;;16.20;10.33;;;-1.10;99.90;;;;;;4996274;28;20447;-62
2023/03/01 06:51:56;;;;;;;15.50;11.07;;;-0.80;99.90;;;;;;4988942;28;20789;-63
2023/03/01 06:54:22;;;;;;;23.40;12.77;;;-0.70;99.90;;;;;;4995122;28;20584;-63
2023/03/01 06:56:48;;;;;;;16.77;13.60;;;-0.60;99.90;;;;;;4990618;28;20412;-58
2023/03/01 06:59:14;;;;;;;14.60;9.97;;;-0.40;99.90;;;;;;4990481;28;20440;-66
2023/03/01 07:01:39;;;;;;;16.40;12.03;;;-0.30;99.90;;;;;;4996234;28;20478;-66
2023/03/01 07:04:05;;;;;;;16.37;11.10;;;0.10;99.90;;;;;;4990552;28;20462;-63
2023/03/01 07:06:31;;;;;;;20.27;13.30;;;0.50;99.90;;;;;;4994789;28;20177;-64
2023/03/01 07:08:56;;;;;;;14.40;10.80;;;0.70;99.90;;;;;;4990113;28;20219;-63
2023/03/01 07:11:23;;;;;;;20.40;13.63;;;0.80;99.90;;;;;;4990467;28;20173;-63
2023/03/01 07:13:48;;;;;;;22.03;13.30;;;1.00;99.90;;;;;;4990260;28;20594;-63
2023/03/01 07:16:14;;;;;;;12.93;11.53;;;1.40;99.90;;;;;;4990254;28;20416;-62
2023/03/01 07:18:40;;;;;;;15.77;12.57;;;2.20;99.90;;;;;;5003385;28;20200;-63
2023/03/01 07:21:10;;;;;;;21.37;13.00;;;2.50;99.90;;;;;;4990496;28;20415;-64
2023/03/01 07:23:36;;;;;;;20.47;14.27;;;2.30;99.90;;;;;;4988889;28;20467;-62
2023/03/01 07:26:02;;;;;;;19.33;12.60;;;2.40;99.90;;;;;;4990271;28;20944;-62
2023/03/01 07:28:28;;;;;;;22.63;14.60;;;2.80;99.90;;;;;;4997923;28;20179;-62
2023/03/01 07:30:54;;;;;;;18.00;13.73;;;3.30;99.90;;;;;;4994326;28;20212;-62
2023/03/01 07:33:20;;;;;;;21.33;12.70;;;3.30;99.90;;;;;;4995365;28;20450;-63
2023/03/01 07:35:46;;;;;;;16.93;12.77;;;3.20;99.90;;;;;;4993832;28;20420;-63
2023/03/01 07:38:11;;;;;;;20.00;12.97;;;3.60;99.90;;;;;;4992744;28;20524;-61
2023/03/01 07:40:37;;;;;;;15.40;12.20;;;4.10;99.90;;;;;;4998912;28;20272;-63
2023/03/01 07:43:03;;;;;;;13.70;10.77;;;4.40;99.90;;;;;;4996331;28;20277;-63
2023/03/01 07:45:28;;;;;;;16.70;11.63;;;4.70;99.90;;;;;;4998651;28;20188;-61
2023/03/01 07:47:55;;;;;;;21.43;13.00;;;4.90;99.90;;;;;;4994068;28;20247;-63
2023/03/01 07:50:21;;;;;;;20.20;12.57;;;5.30;99.90;;;;;;4997246;28;20743;-62
2023/03/01 07:52:48;;;;;;;13.20;11.80;;;5.30;99.90;;;;;;4992987;28;20566;-63
2023/03/01 07:55:15;;;;;;;13.43;12.00;;;5.40;99.90;;;;;;4993522;28;20420;-62
2023/03/01 07:57:40;;;;;;;16.30;10.93;;;6.00;99.90;;;;;;4998935;28;20415;-62
2023/03/01 08:00:07;;;;;;;14.70;10.83;;;5.90;99.90;;;;;;4996791;28;20490;-62
2023/03/01 08:02:33;;;;;;;13.67;9.50;;;5.60;99.90;;;;;;4998463;28;20188;-61
2023/03/01 08:04:59;;;;;;;11.20;9.60;;;5.50;99.90;;;;;;4997491;28;20780;-63
2023/03/01 08:07:24;;;;;;;13.47;11.90;;;6.90;99.90;;;;;;4993965;28;20167;-63
2023/03/01 08:09:50;;;;;;;11.17;9.33;;;7.70;99.90;;;;;;4996166;28;20368;-63
2023/03/01 08:12:18;;;;;;;13.70;10.43;;;7.70;99.90;;;;;;4992944;28;20220;-62
2023/03/01 08:14:44;;;;;;;11.57;9.50;;;7.90;99.90;;;;;;4995194;28;20198;-63
2023/03/01 08:17:10;;;;;;;14.57;10.63;;;8.00;99.90;;;;;;4990926;28;20408;-62
2023/03/01 08:19:35;;;;;;;11.40;10.23;;;8.90;99.90;;;;;;4992389;28;20653;-61
2023/03/01 08:22:02;;;;;;;14.80;10.63;;;8.70;99.90;;;;;;4992381;28;20183;-62
2023/03/01 08:24:28;;;;;;;9.30;8.03;;;9.00;99.90;;;;;;5021738;22;20573;-71
2023/03/01 08:26:54;;;;;;;8.83;7.90;;;8.00;99.90;;;;;;5013461;28;20425;-70
2023/03/01 08:29:19;;;;;;;9.27;8.37;;;7.60;99.90;;;;;;5013327;28;20496;-71
2023/03/01 08:31:45;;;;;;;8.07;7.20;;;7.70;99.90;;;;;;5013434;28;20166;-71
2023/03/01 08:34:14;;;;;;;8.27;6.40;;;9.10;99.90;;;;;;5013571;28;20205;-70
2023/03/01 08:36:42;;;;;;;10.60;6.87;;;10.80;99.60;;;;;;5013316;28;20169;-70
2023/03/01 08:39:10;;;;;;;7.13;6.43;;;12.40;93.80;;;;;;5007310;28;20415;-71
2023/03/01 08:41:36;;;;;;;6.90;5.67;;;13.90;93.20;;;;;;5013292;28;20899;-71
2023/03/01 08:44:02;;;;;;;8.83;6.37;;;13.90;90.40;;;;;;5008448;28;20970;-71
2023/03/01 08:46:29;;;;;;;8.83;6.87;;;15.00;85.70;;;;;;5002979;28;20410;-69
2023/03/01 08:48:55;;;;;;;9.17;6.43;;;14.50;81.60;;;;;;4999021;28;20417;-71
2023/03/01 08:51:22;;;;;;;8.50;7.07;;;15.20;77.90;;;;;;5019654;28;20404;-69
2023/03/01 08:53:48;;;;;;;8.10;6.37;;;12.60;78.90;;;;;;5012664;28;20491;-69
2023/03/01 08:56:14;;;;;;;8.90;6.83;;;11.90;82.20;;;;;;5012212;28;20419;-67
2023/03/01 08:58:39;;;;;;;5.90;5.23;;;12.00;84.70;;;;;;5012875;28;20175;-68
2023/03/01 09:01:09;;;;;;;8.30;5.83;;;12.10;83.60;;;;;;5011237;28;20435;-68
2023/03/01 09:03:35;;;;;;;7.27;5.53;;;11.10;83.50;;;;;;5005969;28;20235;-70
2023/03/01 09:06:01;;;;;;;7.50;6.00;;;10.30;85.50;;;;;;5012453;28;20409;-69
2023/03/01 09:08:27;;;;;;;7.90;6.00;;;10.20;88.30;;;;;;5009742;28;20663;-70
2023/03/01 09:10:53;;;;;;;7.30;5.63;;;11.40;86.10;;;;;;5012560;28;20405;-71
2023/03/01 09:13:18;;;;;;;10.17;5.63;;;11.90;81.20;;;;;;5007123;28;20665;-68
2023/03/01 09:15:44;;;;;;;7.70;5.53;;;13.00;82.90;;;;;;5010049;28;20180;-67
2023/03/01 09:18:09;;;;;;;5.77;5.27;;;14.90;78.20;;;;;;5012548;28;20179;-68
2023/03/01 09:20:35;;;;;;;5.20;4.70;;;13.40;74.50;;;;;;5014141;28;20268;-69
2023/03/01 09:23:01;;;;;;;6.43;4.60;;;14.10;73.60;;;;;;5010188;28;20229;-70
2023/03/01 09:25:26;;;;;;;6.00;5.40;;;13.60;73.60;;;;;;5018180;28;20289;-71
2023/03/01 09:27:53;;;;;;;6.20;4.43;;;13.10;72.30;;;;;;5015969;28;20239;-70
2023/03/01 09:30:19;;;;;;;5.27;4.70;;;14.20;73.90;;;;;;5010024;28;20532;-69
2023/03/01 09:32:45;;;;;;;7.40;5.53;;;15.20;73.90;;;;;;5009755;28;20432;-70
2023/03/01 09:35:11;;;;;;;8.87;5.83;;;13.30;70.60;;;;;;5012260;28;20960;-68
2023/03/01 09:37:37;;;;;;;6.30;5.60;;;13.00;75.60;;;;;;5012063;28;20694;-68
2023/03/01 09:40:15;;;;;;;5.73;5.13;;;12.80;74.20;;;;;;5012287;28;20426;-69
2023/03/01 09:42:50;;;;;;;5.97;5.40;;;13.00;70.70;;;;;;5017070;28;20414;-69
2023/03/01 09:45:27;;;;;;;5.17;4.67;;;12.70;70.50;;;;;;5013727;28;20428;-70
2023/03/01 09:47:53;;;;;;;6.23;4.80;;;11.90;72.20;;;;;;5008053;28;20405;-69
2023/03/01 09:50:21;;;;;;;5.73;4.00;;;12.70;71.90;;;;;;5004791;28;20447;-70
2023/03/01 09:52:59;;;;;;;4.47;4.07;;;12.40;70.50;;;;;;5011937;28;20515;-71
2023/03/01 09:55:41;;;;;;;5.33;4.27;;;11.20;74.50;;;;;;5003978;28;20440;-70
2023/03/01 09:58:28;;;;;;;6.80;4.63;;;11.70;75.80;;;;;;5004486;28;20430;-68
2023/03/01 10:00:59;;;;;;;3.90;2.37;;;11.10;72.60;;;;;;5011878;28;20826;-70
2023/03/01 10:03:45;;;;;;;3.43;2.80;;;9.10;75.50;;;;;;5007950;28;20457;-72
2023/03/01 10:06:23;;;;;;;3.80;3.10;;;9.20;77.30;;;;;;5004788;28;20945;-72
2023/03/01 10:08:56;;;;;;;6.17;3.57;;;9.40;76.80;;;;;;5006720;28;20456;-68
2023/03/01 10:11:25;;;;;;;5.33;3.63;;;9.10;76.00;;;;;;5007597;28;20775;-71
2023/03/01 10:14:26;;;;;;;5.87;4.07;;;8.40;82.80;;;;;;5007547;28;20423;-71
2023/03/01 10:17:02;;;;;;;8.37;3.90;;;8.60;81.60;;;;;;4976636;28;20935;-69
2023/03/01 10:19:31;;;;;;;4.63;3.23;;;8.20;82.80;;;;;;5005819;28;20502;-69
2023/03/01 10:22:21;;;;;;;4.70;2.80;;;7.80;82.50;;;;;;5021652;28;20412;-70
2023/03/01 10:24:47;;;;;;;6.37;2.90;;;7.50;82.50;;;;;;5012926;28;20466;-70
2023/03/01 10:27:37;;;;;;;4.13;3.17;;;7.40;83.20;;;;;;5006737;28;20934;-69
2023/03/01 10:30:11;;;;;;;3.20;2.30;;;7.40;84.40;;;;;;5011075;28;20942;-71
2023/03/01 10:32:37;;;;;;;4.10;2.60;;;7.00;81.40;;;;;;5015150;28;20500;-70
2023/03/01 10:35:21;;;;;;;2.73;1.93;;;6.90;82.80;;;;;;5006430;28;20460;-69
2023/03/01 10:38:07;;;;;;;4.47;2.57;;;7.00;81.60;;;;;;5007451;28;20407;-70
2023/03/01 10:40:34;;;;;;;4.07;2.57;;;7.00;84.30;;;;;;5006252;28;20427;-72
2023/03/01 10:43:05;;;;;;;3.93;3.53;;;6.60;85.60;;;;;;5021999;28;20482;-69
2023/03/01 10:45:38;;;;;;;6.03;2.83;;;6.80;87.50;;;;;;5010981;28;20427;-70
2023/03/01 10:48:06;;;;;;;3.53;2.60;;;7.00;86.10;;;;;;5008742;28;20422;-72
2023/03/01 10:50:32;;;;;;;2.30;2.10;;;7.10;86.30;;;;;;5011578;28;20458;-70
2023/03/01 10:53:00;;;;;;;4.10;2.73;;;7.30;84.20;;;;;;5012270;28;20414;-70
2023/03/01 10:55:29;;;;;;;3.10;2.03;;;7.10;80.70;;;;;;4998323;28;20502;-72
2023/03/01 10:58:14;;;;;;;3.23;2.07;;;6.90;78.10;;;;;;5007854;28;20407;-71
2023/03/01 11:00:48;;;;;;;2.50;1.97;;;6.70;77.50;;;;;;4986709;28;20420;-70
2023/03/01 11:03:18;;;;;;;3.27;2.10;;;6.50;78.20;;;;;;5006970;28;20452;-69
2023/03/01 11:05:50;;;;;;;4.60;2.60;;;6.60;76.70;;;;;;5018077;28;20504;-70
2023/03/01 11:08:42;;;;;;;3.17;2.30;;;6.50;79.70;;;;;;5011832;28;20403;-70
2023/03/01 11:11:20;;;;;;;4.03;2.37;;;6.40;80.70;;;;;;5015149;28;20506;-69
2023/03/01 11:13:56;;;;;;;5.90;2.77;;;6.60;80.40;;;;;;5008664;28;20479;-70
2023/03/01 11:16:27;;;;;;;3.10;2.67;;;6.40;80.40;;;;;;5013790;28;20736;-70
2023/03/01 11:19:03;;;;;;;2.70;2.00;;;6.60;79.30;;;;;;5011105;28;20449;-69
2023/03/01 11:21:32;;;;;;;2.13;1.90;;;6.80;77.10;;;;;;5015685;28;20501;-70
2023/03/01 11:24:00;;;;;;;2.40;2.20;;;6.50;74.30;;;;;;5017533;28;20485;-70
2023/03/01 11:26:28;;;;;;;4.10;2.70;;;6.80;76.50;;;;;;5010000;28;20438;-70
2023/03/01 11:28:58;;;;;;;4.17;1.93;;;7.00;77.20;;;;;;5011655;28;20415;-70
2023/03/01 11:31:25;;;;;;;2.37;1.60;;;7.00;73.90;;;;;;5006635;28;20422;-69
2023/03/01 11:34:10;;;;;;;2.87;2.00;;;7.00;73.20;;;;;;5015469;28;20852;-69
2023/03/01 11:36:42;;;;;;;5.00;2.17;;;7.00;74.70;;;;;;5009209;28;20418;-70
2023/03/01 11:39:37;;;;;;;3.50;2.23;;;7.00;74.20;;;;;;5014252;28;20426;-70
2023/03/01 11:42:54;;;;;;;4.20;1.90;;;7.10;74.50;;;;;;4988874;28;20435;-70
2023/03/01 11:45:23;;;;;;;6.50;3.93;;;7.10;74.30;;;;;;5003161;28;20977;-70
2023/03/01 11:48:19;;;;;;;4.10;2.60;;;7.00;75.20;;;;;;5006223;28;20411;-69
2023/03/01 11:50:48;;;;;;;2.67;2.03;;;7.10;74.70;;;;;;5010203;28;20915;-72
2023/03/01 11:53:35;;;;;;;3.67;3.23;;;7.30;74.50;;;;;;5014303;28;20917;-70
2023/03/01 11:56:32;;;;;;;3.53;2.47;;;7.40;75.00;;;;;;5010243;28;20439;-68
2023/03/01 11:59:13;;;;;;;3.33;2.50;;;7.30;73.60;;;;;;5019407;28;20402;-70
2023/03/01 12:01:58;;;;;;;4.13;2.90;;;7.40;73.60;;;;;;4992142;28;20406;-69
2023/03/01 12:04:42;;;;;;;7.33;2.87;;;7.40;73.00;;;;;;5013574;28;20466;-69
2023/03/01 12:07:18;;;;;;;4.50;3.50;;;7.50;72.90;;;;;;5015742;28;20423;-70
2023/03/01 12:10:07;;;;;;;4.13;2.93;;;7.50;72.80;;;;;;5017613;28;20417;-70
2023/03/01 12:12:43;;;;;;;2.67;2.43;;;7.50;74.20;;;;;;5007853;28;20844;-69
2023/03/01 12:15:30;;;;;;;3.40;3.10;;;7.50;73.20;;;;;;5016881;28;20440;-69
2023/03/01 12:18:02;;;;;;;2.90;1.60;;;7.50;70.70;;;;;;5021340;28;20407;-69
2023/03/01 12:21:05;;;;;;;2.20;1.93;;;7.60;69.20;;;;;;5005507;28;20420;-69
2023/03/01 12:24:21;;;;;;;1.53;1.40;;;7.60;68.10;;;;;;5009779;28;20470;-69
2023/03/01 12:26:55;;;;;;;4.30;2.70;;;7.70;66.60;;;;;;5009284;28;20484;-70
2023/03/01 12:29:31;;;;;;;2.13;1.90;;;7.60;68.10;;;;;;5011366;28;20762;-65
2023/03/01 12:32:17;;;;;;;2.80;2.03;;;7.50;69.80;;;;;;5030322;28;20407;-66
2023/03/01 12:34:49;;;;;;;4.37;2.03;;;7.60;66.50;;;;;;5017630;28;20431;-66
2023/03/01 12:37:24;;;;;;;3.80;2.27;;;7.60;66.90;;;;;;5005837;28;20524;-66
2023/03/01 12:39:55;;;;;;;3.97;2.80;;;7.80;67.60;;;;;;5005331;28;20435;-69
2023/03/01 12:42:47;;;;;;;2.77;1.60;;;7.90;67.70;;;;;;5009232;28;20925;-68
2023/03/01 12:45:31;;;;;;;4.17;3.20;;;7.90;67.40;;;;;;5004716;28;20470;-66
2023/03/01 12:48:30;;;;;;;2.97;2.40;;;7.80;68.10;;;;;;5008908;28;20403;-68
2023/03/01 12:51:00;;;;;;;2.17;1.93;;;7.90;65.60;;;;;;5001765;28;20479;-65
2023/03/01 12:53:38;;;;;;;2.43;2.23;;;7.80;64.70;;;;;;5002608;28;20522;-67
2023/03/01 12:56:13;;;;;;;2.70;2.10;;;7.90;65.50;;;;;;5013187;28;20453;-69